createdAt,value
2019-04-14T01:25:39.571Z,100.00
2019-04-14T01:43:17.203Z,100.00
2019-04-14T02:44:55.933Z,100.00
2019-04-14T03:23:19.226Z,100.00
2019-04-14T03:54:12.366Z,100.00
2019-04-14T03:56:57.674Z,100.00
2019-04-14T04:02:44.457Z,100.00
2019-04-14T04:12:31.405Z,100.00
2019-04-14T04:48:30.608Z,100.00
2019-04-14T04:54:18.954Z,100.00
2019-04-14T04:56:58.003Z,100.00
2019-04-14T05:37:24.778Z,100.00
2019-04-14T05:40:43.461Z,100.00
2019-04-14T06:05:56.855Z,100.00
2019-04-14T06:12:32.426Z,100.00
2019-04-14T07:02:16.160Z,100.00
2019-04-14T07:04:46.505Z,100.00
2019-04-14T07:07:16.958Z,100.00
2019-04-14T07:09:50.203Z,100.00
2019-04-14T07:12:21.780Z,100.00
2019-04-14T08:05:55.276Z,93.01
2019-04-14T08:08:24.785Z,92.47
2019-04-14T08:10:55.520Z,91.79
2019-04-14T08:13:24.964Z,89.86
2019-04-14T08:15:54.499Z,88.58
2019-04-14T08:18:24.026Z,88.32
2019-04-14T08:20:53.658Z,86.76
2019-04-14T08:23:24.003Z,86.34
2019-04-14T08:25:53.625Z,84.41
2019-04-14T08:28:23.229Z,82.42
2019-04-14T08:30:52.661Z,80.80
2019-04-14T08:33:22.064Z,80.10
2019-04-14T08:35:51.592Z,79.57
2019-04-14T08:38:21.043Z,77.42
2019-04-14T08:40:50.588Z,75.76
2019-04-14T08:43:30.951Z,76.74
2019-04-14T08:46:06.028Z,77.96
2019-04-14T08:49:09.589Z,74.96
2019-04-14T08:51:53.210Z,73.37
2019-04-14T08:54:27.251Z,72.95
2019-04-14T08:57:15.570Z,71.52
2019-04-14T09:00:06.301Z,70.38
2019-04-14T09:02:53.442Z,70.42
2019-04-14T09:05:41.039Z,70.86
2019-04-14T09:08:18.711Z,66.17
2019-04-14T09:10:50.900Z,65.45
2019-04-14T09:13:21.829Z,66.63
2019-04-14T09:15:51.312Z,62.52
2019-04-14T09:18:21.031Z,63.63
2019-04-14T09:20:52.474Z,61.76
2019-04-14T09:23:21.763Z,62.43
2019-04-14T09:25:51.182Z,61.79
2019-04-14T09:28:20.760Z,62.50
2019-04-14T09:30:50.257Z,61.44
2019-04-14T09:33:19.930Z,61.79
2019-04-14T09:35:50.579Z,63.28
2019-04-14T09:38:20.374Z,59.93
2019-04-14T09:40:49.859Z,60.29
2019-04-14T09:43:19.299Z,60.82
2019-04-14T09:45:48.729Z,59.37
2019-04-14T09:48:21.678Z,62.23
2019-04-14T09:50:51.221Z,61.46
2019-04-14T09:53:20.646Z,59.75
2019-04-14T09:55:50.057Z,60.80
2019-04-14T09:58:19.552Z,59.67
2019-04-14T10:00:50.136Z,58.43
2019-04-14T10:03:19.894Z,56.99
2019-04-14T10:05:49.587Z,56.84
2019-04-14T10:08:19.220Z,59.27
2019-04-14T10:10:51.381Z,57.48
2019-04-14T10:13:20.863Z,60.44
2019-04-14T10:15:50.502Z,57.03
2019-04-14T10:18:19.929Z,58.16
2019-04-14T10:20:49.336Z,59.27
2019-04-14T10:23:18.886Z,58.71
2019-04-14T10:25:48.427Z,60.34
2019-04-14T10:28:17.818Z,58.26
2019-04-14T10:30:47.240Z,58.26
2019-04-14T10:33:16.732Z,58.47
2019-04-14T10:35:46.218Z,58.47
2019-04-14T10:38:15.632Z,59.23
2019-04-14T10:40:45.350Z,57.84
2019-04-14T10:43:14.739Z,59.65
2019-04-14T10:45:44.160Z,54.59
2019-04-14T10:48:13.661Z,54.93
2019-04-14T10:50:43.190Z,53.90
2019-04-14T10:53:12.602Z,54.65
2019-04-14T10:55:42.521Z,57.52
2019-04-14T10:58:12.234Z,57.73
2019-04-14T11:00:41.767Z,57.97
2019-04-14T11:03:11.150Z,57.54
2019-04-14T11:05:50.803Z,57.47
2019-04-14T11:08:20.712Z,57.24
2019-04-14T11:10:50.247Z,55.55
2019-04-14T11:13:19.704Z,55.71
2019-04-14T11:15:49.104Z,55.94
2019-04-14T11:18:18.704Z,57.51
2019-04-14T11:20:49.704Z,56.50
2019-04-14T11:23:19.289Z,56.19
2019-04-14T11:25:48.746Z,56.07
2019-04-14T11:28:18.239Z,55.08
2019-04-14T11:30:47.768Z,56.60
2019-04-14T11:33:27.150Z,58.29
2019-04-14T11:36:14.424Z,57.87
2019-04-14T11:38:49.258Z,55.59
2019-04-14T11:41:22.060Z,54.33
2019-04-14T11:43:51.536Z,53.57
2019-04-14T11:46:21.235Z,55.30
2019-04-14T11:48:50.699Z,55.07
2019-04-14T11:51:20.268Z,55.89
2019-04-14T11:53:49.708Z,57.42
2019-04-14T11:56:19.085Z,57.95
2019-04-14T11:58:48.562Z,58.59
2019-04-14T12:01:52.312Z,59.03
2019-04-14T12:04:38.049Z,59.58
2019-04-14T12:07:19.621Z,59.39
2019-04-14T12:09:55.300Z,59.69
2019-04-14T12:12:24.923Z,60.88
2019-04-14T12:14:54.426Z,60.03
2019-04-14T12:17:24.230Z,59.75
2019-04-14T12:19:53.617Z,61.26
2019-04-14T12:22:23.248Z,60.23
2019-04-14T12:24:52.946Z,62.13
2019-04-14T12:27:22.444Z,62.35
2019-04-14T12:29:52.234Z,61.59
2019-04-14T12:32:22.118Z,63.10
2019-04-14T12:34:51.673Z,63.10
2019-04-14T12:37:22.775Z,60.96
2019-04-14T12:39:52.297Z,61.36
2019-04-14T12:42:40.703Z,58.16
2019-04-14T12:45:29.738Z,56.95
2019-04-14T12:48:33.310Z,58.04
2019-04-14T12:51:06.364Z,57.00
2019-04-14T12:53:35.862Z,54.10
2019-04-14T12:56:05.283Z,52.89
2019-04-14T12:58:49.050Z,51.47
2019-04-14T13:01:19.148Z,51.69
2019-04-14T13:03:48.628Z,52.54
2019-04-14T13:06:18.157Z,54.72
2019-04-14T13:08:47.596Z,58.77
2019-04-14T13:11:17.211Z,59.69
2019-04-14T13:13:46.732Z,59.22
2019-04-14T13:16:16.154Z,58.14
2019-04-14T13:18:45.624Z,56.60
2019-04-14T13:21:15.110Z,55.69
2019-04-14T13:23:44.507Z,57.81
2019-04-14T13:26:14.036Z,58.99
2019-04-14T13:28:43.561Z,60.84
2019-04-14T13:31:13.003Z,59.53
2019-04-14T13:33:42.391Z,59.02
2019-04-14T13:36:13.016Z,61.71
2019-04-14T13:38:42.757Z,60.38
2019-04-14T13:41:12.133Z,59.72
2019-04-14T13:43:41.818Z,61.11
2019-04-14T13:46:11.488Z,63.92
2019-04-14T13:48:40.964Z,64.38
2019-04-14T13:51:10.402Z,64.41
2019-04-14T13:53:39.822Z,63.71
2019-04-14T13:56:09.280Z,63.96
2019-04-14T13:58:40.775Z,63.50
2019-04-14T14:01:10.286Z,63.95
2019-04-14T14:03:40.833Z,67.37
2019-04-14T14:06:10.243Z,68.01
2019-04-14T14:08:39.630Z,67.06
2019-04-14T14:11:27.062Z,67.06
2019-04-14T14:14:05.251Z,69.94
2019-04-14T14:17:03.903Z,69.24
2019-04-14T14:19:58.291Z,69.24
2019-04-14T14:22:43.693Z,68.51
2019-04-14T14:25:17.448Z,68.22
2019-04-14T14:27:46.927Z,67.91
2019-04-14T14:30:18.500Z,68.89
2019-04-14T14:32:48.071Z,66.67
2019-04-14T14:35:17.558Z,65.76
2019-04-14T14:37:47.169Z,64.05
2019-04-14T14:40:16.855Z,66.68
2019-04-14T14:42:46.341Z,67.95
2019-04-14T14:45:38.194Z,68.95
2019-04-14T14:48:21.369Z,69.89
2019-04-14T14:50:58.226Z,70.31
2019-04-14T14:53:27.608Z,71.86
2019-04-14T14:55:56.983Z,71.84
2019-04-14T14:58:26.520Z,71.80
2019-04-14T15:00:56.021Z,72.13
2019-04-14T15:03:25.530Z,72.24
2019-04-14T15:05:54.947Z,72.86
2019-04-14T15:08:24.444Z,73.80
2019-04-14T15:10:53.972Z,74.67
2019-04-14T15:13:23.376Z,74.99
2019-04-14T15:15:52.772Z,75.09
2019-04-14T15:18:22.828Z,73.58
2019-04-14T15:20:52.309Z,74.76
2019-04-14T15:23:25.096Z,74.99
2019-04-14T15:25:53.012Z,75.09
2019-04-14T15:28:22.394Z,75.30
2019-04-14T15:30:51.773Z,75.07
2019-04-14T15:33:21.311Z,76.55
2019-04-14T15:35:50.791Z,76.51
2019-04-14T15:38:21.691Z,77.91
2019-04-14T15:40:51.310Z,78.46
2019-04-14T15:43:20.789Z,78.92
2019-04-14T15:45:50.343Z,79.03
2019-04-14T15:48:20.062Z,79.49
2019-04-14T15:50:49.677Z,79.58
2019-04-14T15:53:19.230Z,80.11
2019-04-14T15:55:48.710Z,81.26
2019-04-14T15:58:36.150Z,80.82
2019-04-14T16:01:23.588Z,80.32
2019-04-14T16:04:00.852Z,80.67
2019-04-14T16:06:41.401Z,80.44
2019-04-14T16:09:20.892Z,80.65
2019-04-14T16:12:18.449Z,81.65
2019-04-14T16:15:06.979Z,82.84
2019-04-14T16:17:58.131Z,83.46
2019-04-14T16:20:32.754Z,83.39
2019-04-14T16:23:02.261Z,83.80
2019-04-14T16:25:49.032Z,84.99
2019-04-14T16:28:26.875Z,87.59
2019-04-14T16:31:33.525Z,90.04
2019-04-14T16:34:15.139Z,92.60
2019-04-14T16:36:45.438Z,94.73
2019-04-14T16:39:14.854Z,95.81
2019-04-14T16:41:44.654Z,96.46
2019-04-14T16:44:14.124Z,97.18
2019-04-14T16:46:43.505Z,95.80
2019-04-14T16:49:13.555Z,95.20
2019-04-14T16:51:52.071Z,94.95
2019-04-14T16:54:55.723Z,92.38
2019-04-14T16:57:42.972Z,92.84
2019-04-14T17:00:15.595Z,92.15
2019-04-14T17:02:45.093Z,91.45
2019-04-14T17:05:14.614Z,90.55
2019-04-14T17:07:44.021Z,90.49
2019-04-14T17:10:15.617Z,90.77
2019-04-14T17:12:45.171Z,90.63
2019-04-14T17:15:39.423Z,90.98
2019-04-14T17:18:34.333Z,90.88
2019-04-14T17:21:17.922Z,91.31
2019-04-14T17:23:55.767Z,91.45
2019-04-14T17:26:41.387Z,91.79
2019-04-14T17:29:17.508Z,93.17
2019-04-14T17:32:18.267Z,94.01
2019-04-14T17:35:07.270Z,94.80
2019-04-14T17:38:01.687Z,95.27
2019-04-14T17:40:44.592Z,95.62
2019-04-14T17:43:19.896Z,95.68
2019-04-14T17:46:09.080Z,95.73
2019-04-14T17:48:59.979Z,96.00
2019-04-14T17:51:40.063Z,96.24
2019-04-14T17:54:29.607Z,96.05
2019-04-14T17:57:08.645Z,96.37
2019-04-14T17:59:47.732Z,98.41
2019-04-14T18:02:26.080Z,98.70
2019-04-14T18:05:04.146Z,99.05
2019-04-14T18:07:50.295Z,99.59
2019-04-14T18:10:32.152Z,99.21
2019-04-14T18:13:17.794Z,99.39
2019-04-14T18:16:11.337Z,99.66
2019-04-14T18:19:05.575Z,99.60
2019-04-14T18:21:35.106Z,100.00
2019-04-14T18:24:04.575Z,100.00
2019-04-14T18:26:34.470Z,99.91
2019-04-14T18:29:41.309Z,99.26
2019-04-14T18:32:28.503Z,99.60
2019-04-14T18:35:13.613Z,99.18
2019-04-14T18:37:49.563Z,99.00
2019-04-14T18:40:40.992Z,99.16
2019-04-14T18:43:31.918Z,98.72
2019-04-14T18:46:21.449Z,98.58
2019-04-14T18:48:56.479Z,96.76
2019-04-14T18:51:54.281Z,96.38
2019-04-14T18:54:37.277Z,96.46
2019-04-14T18:57:11.837Z,96.99
2019-04-14T18:59:54.849Z,97.42
2019-04-14T19:02:24.598Z,98.00
2019-04-14T19:04:53.968Z,97.54
2019-04-14T19:07:23.516Z,98.21
2019-04-14T19:09:53.021Z,97.82
2019-04-14T19:12:56.469Z,97.57
2019-04-14T19:15:33.826Z,97.72
2019-04-14T19:18:14.183Z,97.09
2019-04-14T19:20:46.597Z,97.03
2019-04-14T19:23:16.043Z,97.57
2019-04-14T19:25:46.307Z,97.34
2019-04-14T19:28:15.789Z,96.56
2019-04-14T19:30:45.311Z,97.14
2019-04-14T19:33:14.729Z,97.05
2019-04-14T19:35:44.104Z,97.10
2019-04-14T19:38:13.580Z,97.88
2019-04-14T19:40:43.020Z,98.62
2019-04-14T19:43:23.092Z,99.46
2019-04-14T19:45:43.905Z,99.78
2019-04-14T19:48:13.370Z,99.74
2019-04-14T19:50:42.754Z,98.92
2019-04-14T19:53:12.267Z,99.08
2019-04-14T19:55:42.016Z,100.00
2019-04-14T19:58:11.422Z,100.00
2019-04-14T20:00:40.796Z,100.00
2019-04-14T20:03:10.316Z,100.00
2019-04-14T20:05:39.798Z,100.00
2019-04-14T20:08:09.212Z,100.00
2019-04-14T20:10:38.592Z,100.00
2019-04-14T20:13:10.421Z,100.00
2019-04-14T20:16:04.875Z,100.00
2019-04-14T20:18:48.750Z,100.00
2019-04-14T20:21:37.176Z,100.00
2019-04-14T20:24:15.076Z,100.00
2019-04-14T20:27:12.868Z,100.00
2019-04-14T20:29:47.395Z,100.00
2019-04-14T20:32:19.933Z,100.00
2019-04-14T20:34:50.155Z,100.00
2019-04-14T20:37:19.558Z,100.00
2019-04-14T20:39:49.160Z,100.00
2019-04-14T20:42:18.757Z,100.00
2019-04-14T20:44:48.183Z,100.00
2019-04-14T20:47:17.555Z,100.00
2019-04-14T20:49:47.195Z,100.00
2019-04-14T20:52:16.753Z,100.00
2019-04-14T20:54:46.325Z,100.00
2019-04-14T20:57:15.699Z,100.00
2019-04-14T20:59:45.234Z,100.00
2019-04-14T21:02:42.687Z,100.00
2019-04-14T21:05:37.703Z,100.00
2019-04-14T21:08:39.902Z,100.00
2019-04-14T21:11:18.852Z,100.00
2019-04-14T21:13:56.678Z,100.00
2019-04-14T21:16:31.350Z,100.00
2019-04-14T21:19:09.508Z,100.00
2019-04-14T21:21:45.593Z,100.00
2019-04-14T21:24:23.778Z,100.00
2019-04-14T21:26:58.443Z,100.00
2019-04-14T21:29:37.840Z,100.00
2019-04-14T21:32:17.837Z,100.00
2019-04-14T21:35:15.317Z,100.00
2019-04-14T21:37:56.477Z,100.00
2019-04-14T21:40:35.724Z,100.00
2019-04-14T21:43:05.126Z,100.00
2019-04-14T21:45:34.676Z,100.00
2019-04-14T21:48:04.306Z,100.00
2019-04-14T21:50:33.686Z,100.00
2019-04-14T21:53:03.159Z,100.00
2019-04-14T21:55:32.667Z,100.00
2019-04-14T21:58:19.785Z,100.00
2019-04-14T22:01:49.041Z,100.00
2019-04-14T22:04:43.432Z,100.00
2019-04-14T22:07:41.444Z,100.00
2019-04-14T22:10:42.457Z,100.00
2019-04-14T22:13:12.145Z,100.00
2019-04-14T22:15:41.633Z,100.00
2019-04-14T22:18:11.108Z,100.00
2019-04-14T22:20:40.683Z,100.00
2019-04-14T22:23:12.013Z,100.00
2019-04-14T22:25:41.568Z,100.00
2019-04-14T22:28:11.206Z,100.00
2019-04-14T22:30:40.672Z,100.00
2019-04-14T22:33:10.080Z,100.00
2019-04-14T22:35:39.575Z,100.00
2019-04-14T22:38:11.410Z,100.00
2019-04-14T22:40:40.851Z,100.00
2019-04-14T22:43:10.230Z,100.00
2019-04-14T22:45:39.733Z,100.00
2019-04-14T22:48:09.353Z,100.00
2019-04-14T22:50:39.183Z,100.00
2019-04-14T22:53:08.583Z,100.00
2019-04-14T22:55:38.090Z,100.00
2019-04-14T22:58:07.689Z,100.00
2019-04-14T23:01:08.520Z,100.00
2019-04-14T23:03:59.973Z,100.00
2019-04-14T23:06:47.463Z,100.00
2019-04-14T23:09:23.807Z,100.00
2019-04-14T23:12:12.794Z,100.00
2019-04-14T23:14:57.880Z,100.00
2019-04-14T23:17:31.537Z,100.00
2019-04-14T23:20:25.919Z,100.00
2019-04-14T23:23:12.939Z,100.00
2019-04-14T23:25:42.460Z,100.00
2019-04-14T23:28:15.897Z,100.00
2019-04-14T23:30:45.317Z,100.00
2019-04-14T23:33:14.794Z,100.00
2019-04-14T23:35:44.283Z,100.00
2019-04-14T23:38:13.988Z,100.00
2019-04-14T23:40:43.471Z,100.00
2019-04-14T23:43:13.102Z,100.00
2019-04-14T23:45:43.146Z,100.00
2019-04-14T23:48:12.832Z,100.00
2019-04-14T23:50:42.302Z,100.00
2019-04-14T23:53:11.693Z,100.00
2019-04-14T23:55:41.663Z,100.00
2019-04-14T23:58:11.142Z,100.00
